Resolven, United Kingdom
Current Conditions -  °F | °C
As of 12:50 AM on Tuesday 21 Oct 2014 (Local Time) from EGDX Reporting Station
Broken Clouds Broken Clouds  
Wind Chill: 57°   Ceiling: 2800
Heat Index: 57°   Visibility: 6mi
Dew Point: 52°   Wind: 21mph
Humidity: 82%   Direction: 240°WSW
Pressure: 29.77"   Gusts: NA
Location:  51.71°N, 3.7°W
Report Text: EGDX 202350Z AUTO 24018KT 9999 FEW020/// BKN028/// 14/11 Q1008 RERA
Loading
Personal Weather Stations






























Interactive Weather Map
Tropical Storm Tracking
New forecast layout! Learn more

10-Day Weather Forecast

Advertisements
Track Severe Weather on mobile